sensor_id;sensor_type;location;lat;lon;timestamp;pressure;altitude;pressure_sealevel;temperature
69597;BMP180;70000;51.176;-115.568;2024-03-29T00:01:40;85403.60;;;4.10
69597;BMP180;70000;51.176;-115.568;2024-03-29T00:04:11;85418.60;;;4.00
69597;BMP180;70000;51.176;-115.568;2024-03-29T00:06:39;85416.20;;;3.90
69597;BMP180;70000;51.176;-115.568;2024-03-29T00:09:08;85422.00;;;3.80
69597;BMP180;70000;51.176;-115.568;2024-03-29T00:11:36;85417.20;;;3.74
69597;BMP180;70000;51.176;-115.568;2024-03-29T00:14:04;85416.60;;;3.70
69597;BMP180;70000;51.176;-115.568;2024-03-29T00:16:33;85421.60;;;3.60
69597;BMP180;70000;51.176;-115.568;2024-03-29T00:19:01;85431.80;;;3.50
69597;BMP180;70000;51.176;-115.568;2024-03-29T00:21:29;85428.20;;;3.50
69597;BMP180;70000;51.176;-115.568;2024-03-29T00:24:01;85442.00;;;3.40
69597;BMP180;70000;51.176;-115.568;2024-03-29T00:26:33;85441.20;;;3.30
69597;BMP180;70000;51.176;-115.568;2024-03-29T00:29:03;85440.60;;;3.30
69597;BMP180;70000;51.176;-115.568;2024-03-29T00:31:32;85433.60;;;3.20
69597;BMP180;70000;51.176;-115.568;2024-03-29T00:34:00;85432.60;;;3.20
69597;BMP180;70000;51.176;-115.568;2024-03-29T00:36:29;85439.60;;;3.10
69597;BMP180;70000;51.176;-115.568;2024-03-29T00:39:01;85446.20;;;3.10
69597;BMP180;70000;51.176;-115.568;2024-03-29T00:41:29;85457.00;;;3.00
69597;BMP180;70000;51.176;-115.568;2024-03-29T00:44:01;85454.80;;;3.00
69597;BMP180;70000;51.176;-115.568;2024-03-29T00:46:31;85458.00;;;2.90
69597;BMP180;70000;51.176;-115.568;2024-03-29T00:48:59;85470.00;;;2.90
69597;BMP180;70000;51.176;-115.568;2024-03-29T00:51:28;85477.40;;;2.90
69597;BMP180;70000;51.176;-115.568;2024-03-29T00:53:57;85479.40;;;2.90
69597;BMP180;70000;51.176;-115.568;2024-03-29T00:56:25;85477.60;;;2.90
69597;BMP180;70000;51.176;-115.568;2024-03-29T00:58:53;85479.40;;;2.80
69597;BMP180;70000;51.176;-115.568;2024-03-29T01:01:22;85477.20;;;2.80
69597;BMP180;70000;51.176;-115.568;2024-03-29T01:03:50;85478.60;;;2.70
69597;BMP180;70000;51.176;-115.568;2024-03-29T01:06:20;85475.20;;;2.70
69597;BMP180;70000;51.176;-115.568;2024-03-29T01:08:48;85484.20;;;2.60
69597;BMP180;70000;51.176;-115.568;2024-03-29T01:11:17;85485.20;;;2.52
69597;BMP180;70000;51.176;-115.568;2024-03-29T01:13:46;85486.40;;;2.50
69597;BMP180;70000;51.176;-115.568;2024-03-29T01:16:14;85483.20;;;2.42
69597;BMP180;70000;51.176;-115.568;2024-03-29T01:18:43;85487.20;;;2.38
69597;BMP180;70000;51.176;-115.568;2024-03-29T01:21:13;85497.60;;;2.30
69597;BMP180;70000;51.176;-115.568;2024-03-29T01:23:46;85498.80;;;2.22
69597;BMP180;70000;51.176;-115.568;2024-03-29T01:26:15;85500.00;;;2.20
69597;BMP180;70000;51.176;-115.568;2024-03-29T01:28:54;85496.60;;;2.10
69597;BMP180;70000;51.176;-115.568;2024-03-29T01:31:32;85497.80;;;2.00
69597;BMP180;70000;51.176;-115.568;2024-03-29T01:37:14;85513.40;;;1.80
69597;BMP180;70000;51.176;-115.568;2024-03-29T01:39:43;85516.60;;;1.70
69597;BMP180;70000;51.176;-115.568;2024-03-29T01:42:12;85514.00;;;1.70
69597;BMP180;70000;51.176;-115.568;2024-03-29T01:44:41;85516.80;;;1.70
69597;BMP180;70000;51.176;-115.568;2024-03-29T01:47:11;85525.20;;;1.60
69597;BMP180;70000;51.176;-115.568;2024-03-29T01:49:45;85524.60;;;1.60
69597;BMP180;70000;51.176;-115.568;2024-03-29T01:52:16;85542.00;;;1.60
69597;BMP180;70000;51.176;-115.568;2024-03-29T01:54:47;85533.20;;;1.50
69597;BMP180;70000;51.176;-115.568;2024-03-29T01:57:17;85540.60;;;1.50
69597;BMP180;70000;51.176;-115.568;2024-03-29T01:59:47;85543.40;;;1.50
69597;BMP180;70000;51.176;-115.568;2024-03-29T02:02:16;85541.00;;;1.40
69597;BMP180;70000;51.176;-115.568;2024-03-29T02:04:45;85540.40;;;1.40
69597;BMP180;70000;51.176;-115.568;2024-03-29T02:07:14;85545.00;;;1.40
69597;BMP180;70000;51.176;-115.568;2024-03-29T02:09:43;85538.40;;;1.36
69597;BMP180;70000;51.176;-115.568;2024-03-29T02:12:12;85550.00;;;1.30
69597;BMP180;70000;51.176;-115.568;2024-03-29T02:14:41;85549.40;;;1.30
69597;BMP180;70000;51.176;-115.568;2024-03-29T02:17:11;85556.60;;;1.20
69597;BMP180;70000;51.176;-115.568;2024-03-29T02:22:15;85567.20;;;1.20
69597;BMP180;70000;51.176;-115.568;2024-03-29T02:24:46;85562.20;;;1.10
69597;BMP180;70000;51.176;-115.568;2024-03-29T02:27:18;85567.00;;;1.10
69597;BMP180;70000;51.176;-115.568;2024-03-29T02:29:46;85571.00;;;1.00
69597;BMP180;70000;51.176;-115.568;2024-03-29T02:32:15;85573.00;;;1.00
69597;BMP180;70000;51.176;-115.568;2024-03-29T02:34:44;85575.40;;;0.90
69597;BMP180;70000;51.176;-115.568;2024-03-29T02:37:13;85570.00;;;0.84
69597;BMP180;70000;51.176;-115.568;2024-03-29T02:39:42;85576.40;;;0.80
69597;BMP180;70000;51.176;-115.568;2024-03-29T02:42:10;85582.60;;;0.70
69597;BMP180;70000;51.176;-115.568;2024-03-29T02:44:39;85583.40;;;0.70
69597;BMP180;70000;51.176;-115.568;2024-03-29T02:47:08;85592.20;;;0.64
69597;BMP180;70000;51.176;-115.568;2024-03-29T02:49:37;85587.00;;;0.60
69597;BMP180;70000;51.176;-115.568;2024-03-29T02:52:06;85591.80;;;0.60
69597;BMP180;70000;51.176;-115.568;2024-03-29T02:54:35;85594.60;;;0.50
69597;BMP180;70000;51.176;-115.568;2024-03-29T02:57:04;85589.80;;;0.50
69597;BMP180;70000;51.176;-115.568;2024-03-29T02:59:33;85592.80;;;0.48
69597;BMP180;70000;51.176;-115.568;2024-03-29T03:02:02;85599.80;;;0.40
69597;BMP180;70000;51.176;-115.568;2024-03-29T03:04:31;85598.40;;;0.40
69597;BMP180;70000;51.176;-115.568;2024-03-29T03:07:00;85608.20;;;0.40
69597;BMP180;70000;51.176;-115.568;2024-03-29T03:09:47;85599.60;;;0.34
69597;BMP180;70000;51.176;-115.568;2024-03-29T03:12:39;85608.60;;;0.30
69597;BMP180;70000;51.176;-115.568;2024-03-29T03:15:08;85609.80;;;0.28
69597;BMP180;70000;51.176;-115.568;2024-03-29T03:17:37;85608.80;;;0.20
69597;BMP180;70000;51.176;-115.568;2024-03-29T03:20:06;85609.00;;;0.10
69597;BMP180;70000;51.176;-115.568;2024-03-29T03:22:37;85618.00;;;0.00
69597;BMP180;70000;51.176;-115.568;2024-03-29T03:25:06;85619.60;;;-0.08
69597;BMP180;70000;51.176;-115.568;2024-03-29T03:27:35;85621.80;;;-0.20
69597;BMP180;70000;51.176;-115.568;2024-03-29T03:30:05;85613.60;;;-0.26
69597;BMP180;70000;51.176;-115.568;2024-03-29T03:32:34;85624.40;;;-0.30
69597;BMP180;70000;51.176;-115.568;2024-03-29T03:35:03;85631.20;;;-0.38
69597;BMP180;70000;51.176;-115.568;2024-03-29T03:37:33;85629.40;;;-0.40
69597;BMP180;70000;51.176;-115.568;2024-03-29T03:40:01;85627.20;;;-0.40
69597;BMP180;70000;51.176;-115.568;2024-03-29T03:42:32;85638.40;;;-0.50
69597;BMP180;70000;51.176;-115.568;2024-03-29T03:45:01;85635.80;;;-0.50
69597;BMP180;70000;51.176;-115.568;2024-03-29T03:47:32;85634.00;;;-0.60
69597;BMP180;70000;51.176;-115.568;2024-03-29T03:50:01;85638.40;;;-0.70
69597;BMP180;70000;51.176;-115.568;2024-03-29T03:52:30;85641.60;;;-0.80
69597;BMP180;70000;51.176;-115.568;2024-03-29T03:55:00;85640.80;;;-0.80
69597;BMP180;70000;51.176;-115.568;2024-03-29T03:57:29;85643.20;;;-0.80
69597;BMP180;70000;51.176;-115.568;2024-03-29T03:59:58;85645.00;;;-0.90
69597;BMP180;70000;51.176;-115.568;2024-03-29T04:02:27;85638.80;;;-0.96
69597;BMP180;70000;51.176;-115.568;2024-03-29T04:04:56;85642.60;;;-1.00
69597;BMP180;70000;51.176;-115.568;2024-03-29T04:07:25;85643.80;;;-1.10
69597;BMP180;70000;51.176;-115.568;2024-03-29T04:09:54;85647.60;;;-1.10
69597;BMP180;70000;51.176;-115.568;2024-03-29T04:12:24;85648.80;;;-1.20
69597;BMP180;70000;51.176;-115.568;2024-03-29T04:14:53;85649.40;;;-1.20
69597;BMP180;70000;51.176;-115.568;2024-03-29T04:17:23;85644.20;;;-1.20
69597;BMP180;70000;51.176;-115.568;2024-03-29T04:19:54;85641.60;;;-1.20
69597;BMP180;70000;51.176;-115.568;2024-03-29T04:22:23;85646.40;;;-1.30
69597;BMP180;70000;51.176;-115.568;2024-03-29T04:24:52;85638.60;;;-1.30
69597;BMP180;70000;51.176;-115.568;2024-03-29T04:27:21;85647.60;;;-1.30
69597;BMP180;70000;51.176;-115.568;2024-03-29T04:29:55;85644.80;;;-1.32
69597;BMP180;70000;51.176;-115.568;2024-03-29T04:32:26;85641.80;;;-1.32
69597;BMP180;70000;51.176;-115.568;2024-03-29T04:34:55;85657.40;;;-1.40
69597;BMP180;70000;51.176;-115.568;2024-03-29T04:37:24;85647.00;;;-1.50
69597;BMP180;70000;51.176;-115.568;2024-03-29T04:39:53;85655.20;;;-1.50
69597;BMP180;70000;51.176;-115.568;2024-03-29T04:42:21;85649.20;;;-1.50
69597;BMP180;70000;51.176;-115.568;2024-03-29T04:44:50;85652.80;;;-1.60
69597;BMP180;70000;51.176;-115.568;2024-03-29T04:47:19;85650.80;;;-1.60
69597;BMP180;70000;51.176;-115.568;2024-03-29T04:49:48;85654.20;;;-1.60
69597;BMP180;70000;51.176;-115.568;2024-03-29T04:52:17;85659.20;;;-1.60
69597;BMP180;70000;51.176;-115.568;2024-03-29T04:54:46;85665.20;;;-1.60
69597;BMP180;70000;51.176;-115.568;2024-03-29T04:57:15;85672.60;;;-1.60
69597;BMP180;70000;51.176;-115.568;2024-03-29T04:59:44;85666.40;;;-1.60
69597;BMP180;70000;51.176;-115.568;2024-03-29T05:02:13;85667.80;;;-1.60
69597;BMP180;70000;51.176;-115.568;2024-03-29T05:05:03;85671.40;;;-1.70
69597;BMP180;70000;51.176;-115.568;2024-03-29T05:07:32;85676.40;;;-1.70
69597;BMP180;70000;51.176;-115.568;2024-03-29T05:10:00;85674.60;;;-1.80
69597;BMP180;70000;51.176;-115.568;2024-03-29T05:12:35;85678.00;;;-1.80
69597;BMP180;70000;51.176;-115.568;2024-03-29T05:15:05;85686.20;;;-1.80
69597;BMP180;70000;51.176;-115.568;2024-03-29T05:17:35;85673.20;;;-1.80
69597;BMP180;70000;51.176;-115.568;2024-03-29T05:20:07;85680.00;;;-1.80
69597;BMP180;70000;51.176;-115.568;2024-03-29T05:22:39;85679.20;;;-1.80
69597;BMP180;70000;51.176;-115.568;2024-03-29T05:25:08;85683.60;;;-1.80
69597;BMP180;70000;51.176;-115.568;2024-03-29T05:27:37;85683.00;;;-1.90
69597;BMP180;70000;51.176;-115.568;2024-03-29T05:30:07;85684.00;;;-1.90
69597;BMP180;70000;51.176;-115.568;2024-03-29T05:32:37;85688.60;;;-1.90
69597;BMP180;70000;51.176;-115.568;2024-03-29T05:35:06;85685.60;;;-1.90
69597;BMP180;70000;51.176;-115.568;2024-03-29T05:37:37;85682.60;;;-1.90
69597;BMP180;70000;51.176;-115.568;2024-03-29T05:40:07;85684.00;;;-1.90
69597;BMP180;70000;51.176;-115.568;2024-03-29T05:42:37;85681.60;;;-2.00
69597;BMP180;70000;51.176;-115.568;2024-03-29T05:45:25;85681.20;;;-2.00
69597;BMP180;70000;51.176;-115.568;2024-03-29T05:47:57;85688.40;;;-2.00
69597;BMP180;70000;51.176;-115.568;2024-03-29T05:50:26;85674.80;;;-2.02
69597;BMP180;70000;51.176;-115.568;2024-03-29T05:52:55;85679.00;;;-2.10
69597;BMP180;70000;51.176;-115.568;2024-03-29T05:55:24;85682.80;;;-2.10
69597;BMP180;70000;51.176;-115.568;2024-03-29T05:57:54;85685.20;;;-2.10
69597;BMP180;70000;51.176;-115.568;2024-03-29T06:00:23;85683.60;;;-2.10
69597;BMP180;70000;51.176;-115.568;2024-03-29T06:02:52;85682.00;;;-2.16
69597;BMP180;70000;51.176;-115.568;2024-03-29T06:05:21;85680.80;;;-2.20
69597;BMP180;70000;51.176;-115.568;2024-03-29T06:07:49;85679.00;;;-2.20
69597;BMP180;70000;51.176;-115.568;2024-03-29T06:10:18;85694.60;;;-2.20
69597;BMP180;70000;51.176;-115.568;2024-03-29T06:12:47;85694.00;;;-2.20
69597;BMP180;70000;51.176;-115.568;2024-03-29T06:15:16;85700.80;;;-2.20
69597;BMP180;70000;51.176;-115.568;2024-03-29T06:18:04;85693.00;;;-2.28
69597;BMP180;70000;51.176;-115.568;2024-03-29T06:20:33;85686.20;;;-2.30
69597;BMP180;70000;51.176;-115.568;2024-03-29T06:23:01;85692.60;;;-2.38
69597;BMP180;70000;51.176;-115.568;2024-03-29T06:25:34;85696.20;;;-2.40
69597;BMP180;70000;51.176;-115.568;2024-03-29T06:28:03;85687.60;;;-2.50
69597;BMP180;70000;51.176;-115.568;2024-03-29T06:30:31;85687.80;;;-2.52
69597;BMP180;70000;51.176;-115.568;2024-03-29T06:33:00;85695.20;;;-2.60
69597;BMP180;70000;51.176;-115.568;2024-03-29T06:35:31;85686.80;;;-2.60
69597;BMP180;70000;51.176;-115.568;2024-03-29T06:38:03;85685.40;;;-2.70
69597;BMP180;70000;51.176;-115.568;2024-03-29T06:40:32;85694.40;;;-2.70
69597;BMP180;70000;51.176;-115.568;2024-03-29T06:43:01;85692.00;;;-2.80
69597;BMP180;70000;51.176;-115.568;2024-03-29T06:45:31;85698.20;;;-2.80
69597;BMP180;70000;51.176;-115.568;2024-03-29T06:47:59;85699.20;;;-2.80
69597;BMP180;70000;51.176;-115.568;2024-03-29T06:50:29;85696.80;;;-2.80
69597;BMP180;70000;51.176;-115.568;2024-03-29T06:52:58;85702.80;;;-2.80
69597;BMP180;70000;51.176;-115.568;2024-03-29T07:03:52;85703.80;;;-2.72
69597;BMP180;70000;51.176;-115.568;2024-03-29T07:06:21;85704.40;;;-2.70
69597;BMP180;70000;51.176;-115.568;2024-03-29T07:08:50;85711.60;;;-2.70
69597;BMP180;70000;51.176;-115.568;2024-03-29T07:11:18;85725.20;;;-2.70
69597;BMP180;70000;51.176;-115.568;2024-03-29T07:13:47;85713.40;;;-2.70
69597;BMP180;70000;51.176;-115.568;2024-03-29T07:16:21;85711.20;;;-2.76
69597;BMP180;70000;51.176;-115.568;2024-03-29T07:18:49;85718.20;;;-2.80
69597;BMP180;70000;51.176;-115.568;2024-03-29T07:21:18;85714.80;;;-2.80
69597;BMP180;70000;51.176;-115.568;2024-03-29T07:23:47;85724.20;;;-2.84
69597;BMP180;70000;51.176;-115.568;2024-03-29T07:26:15;85737.20;;;-2.90
69597;BMP180;70000;51.176;-115.568;2024-03-29T07:28:44;85727.00;;;-3.00
69597;BMP180;70000;51.176;-115.568;2024-03-29T07:31:13;85727.40;;;-3.00
69597;BMP180;70000;51.176;-115.568;2024-03-29T07:33:42;85728.80;;;-3.00
69597;BMP180;70000;51.176;-115.568;2024-03-29T07:36:10;85728.80;;;-3.00
69597;BMP180;70000;51.176;-115.568;2024-03-29T07:38:40;85727.60;;;-3.00
69597;BMP180;70000;51.176;-115.568;2024-03-29T07:41:10;85732.60;;;-3.04
69597;BMP180;70000;51.176;-115.568;2024-03-29T07:43:53;85738.60;;;-3.10
69597;BMP180;70000;51.176;-115.568;2024-03-29T07:46:28;85740.80;;;-3.20
69597;BMP180;70000;51.176;-115.568;2024-03-29T07:49:18;85741.80;;;-3.28
69597;BMP180;70000;51.176;-115.568;2024-03-29T07:51:49;85739.40;;;-3.30
69597;BMP180;70000;51.176;-115.568;2024-03-29T07:54:18;85744.20;;;-3.32
69597;BMP180;70000;51.176;-115.568;2024-03-29T07:56:46;85739.00;;;-3.40
69597;BMP180;70000;51.176;-115.568;2024-03-29T07:59:15;85739.80;;;-3.40
69597;BMP180;70000;51.176;-115.568;2024-03-29T08:01:47;85757.20;;;-3.50
69597;BMP180;70000;51.176;-115.568;2024-03-29T08:04:16;85748.40;;;-3.50
69597;BMP180;70000;51.176;-115.568;2024-03-29T08:06:45;85748.80;;;-3.52
69597;BMP180;70000;51.176;-115.568;2024-03-29T08:09:14;85749.20;;;-3.60
69597;BMP180;70000;51.176;-115.568;2024-03-29T08:11:43;85755.60;;;-3.60
69597;BMP180;70000;51.176;-115.568;2024-03-29T08:14:12;85757.20;;;-3.60
69597;BMP180;70000;51.176;-115.568;2024-03-29T08:16:41;85755.20;;;-3.60
69597;BMP180;70000;51.176;-115.568;2024-03-29T08:19:10;85756.00;;;-3.60
69597;BMP180;70000;51.176;-115.568;2024-03-29T08:21:39;85764.20;;;-3.60
69597;BMP180;70000;51.176;-115.568;2024-03-29T08:24:08;85757.20;;;-3.60
69597;BMP180;70000;51.176;-115.568;2024-03-29T08:26:37;85757.40;;;-3.50
69597;BMP180;70000;51.176;-115.568;2024-03-29T08:29:07;85763.20;;;-3.50
69597;BMP180;70000;51.176;-115.568;2024-03-29T08:31:36;85764.40;;;-3.50
69597;BMP180;70000;51.176;-115.568;2024-03-29T08:34:04;85764.00;;;-3.50
69597;BMP180;70000;51.176;-115.568;2024-03-29T08:36:35;85770.40;;;-3.50
69597;BMP180;70000;51.176;-115.568;2024-03-29T08:39:04;85774.20;;;-3.50
69597;BMP180;70000;51.176;-115.568;2024-03-29T08:41:33;85768.40;;;-3.50
69597;BMP180;70000;51.176;-115.568;2024-03-29T08:44:02;85772.80;;;-3.50
69597;BMP180;70000;51.176;-115.568;2024-03-29T08:46:31;85778.00;;;-3.50
69597;BMP180;70000;51.176;-115.568;2024-03-29T08:49:00;85774.20;;;-3.50
69597;BMP180;70000;51.176;-115.568;2024-03-29T08:51:29;85779.20;;;-3.60
69597;BMP180;70000;51.176;-115.568;2024-03-29T08:53:58;85781.40;;;-3.56
69597;BMP180;70000;51.176;-115.568;2024-03-29T08:56:27;85781.40;;;-3.50
69597;BMP180;70000;51.176;-115.568;2024-03-29T08:58:55;85781.80;;;-3.50
69597;BMP180;70000;51.176;-115.568;2024-03-29T09:01:24;85786.60;;;-3.50
69597;BMP180;70000;51.176;-115.568;2024-03-29T09:03:53;85787.20;;;-3.50
69597;BMP180;70000;51.176;-115.568;2024-03-29T09:06:22;85788.40;;;-3.50
69597;BMP180;70000;51.176;-115.568;2024-03-29T09:08:50;85792.20;;;-3.54
69597;BMP180;70000;51.176;-115.568;2024-03-29T09:11:19;85791.80;;;-3.60
69597;BMP180;70000;51.176;-115.568;2024-03-29T09:13:48;85791.80;;;-3.60
69597;BMP180;70000;51.176;-115.568;2024-03-29T09:16:16;85792.40;;;-3.60
69597;BMP180;70000;51.176;-115.568;2024-03-29T09:18:47;85794.80;;;-3.60
69597;BMP180;70000;51.176;-115.568;2024-03-29T09:21:15;85794.40;;;-3.60
69597;BMP180;70000;51.176;-115.568;2024-03-29T09:23:46;85796.00;;;-3.60
69597;BMP180;70000;51.176;-115.568;2024-03-29T09:26:16;85798.20;;;-3.60
69597;BMP180;70000;51.176;-115.568;2024-03-29T09:28:46;85804.00;;;-3.62
69597;BMP180;70000;51.176;-115.568;2024-03-29T09:31:15;85804.00;;;-3.64
69597;BMP180;70000;51.176;-115.568;2024-03-29T09:33:44;85805.80;;;-3.70
69597;BMP180;70000;51.176;-115.568;2024-03-29T09:36:15;85800.40;;;-3.70
69597;BMP180;70000;51.176;-115.568;2024-03-29T09:38:44;85805.20;;;-3.70
69597;BMP180;70000;51.176;-115.568;2024-03-29T09:41:17;85804.00;;;-3.70
69597;BMP180;70000;51.176;-115.568;2024-03-29T09:43:50;85803.40;;;-3.74
69597;BMP180;70000;51.176;-115.568;2024-03-29T09:46:24;85803.00;;;-3.78
69597;BMP180;70000;51.176;-115.568;2024-03-29T09:48:55;85801.60;;;-3.80
69597;BMP180;70000;51.176;-115.568;2024-03-29T09:51:27;85796.80;;;-3.80
69597;BMP180;70000;51.176;-115.568;2024-03-29T09:53:59;85798.60;;;-3.80
69597;BMP180;70000;51.176;-115.568;2024-03-29T09:56:28;85800.80;;;-3.80
69597;BMP180;70000;51.176;-115.568;2024-03-29T09:58:57;85796.80;;;-3.80
69597;BMP180;70000;51.176;-115.568;2024-03-29T10:01:27;85790.00;;;-3.90
69597;BMP180;70000;51.176;-115.568;2024-03-29T10:03:57;85794.00;;;-3.90
69597;BMP180;70000;51.176;-115.568;2024-03-29T10:06:29;85800.80;;;-3.90
69597;BMP180;70000;51.176;-115.568;2024-03-29T10:09:00;85802.40;;;-3.90
69597;BMP180;70000;51.176;-115.568;2024-03-29T10:11:30;85801.20;;;-3.98
69597;BMP180;70000;51.176;-115.568;2024-03-29T10:13:59;85805.20;;;-4.00
69597;BMP180;70000;51.176;-115.568;2024-03-29T10:16:31;85805.60;;;-4.00
69597;BMP180;70000;51.176;-115.568;2024-03-29T10:18:59;85805.20;;;-4.00
69597;BMP180;70000;51.176;-115.568;2024-03-29T10:21:29;85806.40;;;-4.06
69597;BMP180;70000;51.176;-115.568;2024-03-29T10:23:58;85804.60;;;-4.10
69597;BMP180;70000;51.176;-115.568;2024-03-29T10:26:26;85805.60;;;-4.10
69597;BMP180;70000;51.176;-115.568;2024-03-29T10:28:55;85802.20;;;-4.10
69597;BMP180;70000;51.176;-115.568;2024-03-29T10:31:24;85801.40;;;-4.10
69597;BMP180;70000;51.176;-115.568;2024-03-29T10:33:53;85802.00;;;-4.10
69597;BMP180;70000;51.176;-115.568;2024-03-29T10:36:25;85802.40;;;-4.12
69597;BMP180;70000;51.176;-115.568;2024-03-29T10:38:54;85803.60;;;-4.20
69597;BMP180;70000;51.176;-115.568;2024-03-29T10:41:26;85801.40;;;-4.20
69597;BMP180;70000;51.176;-115.568;2024-03-29T10:43:56;85814.40;;;-4.20
69597;BMP180;70000;51.176;-115.568;2024-03-29T10:46:26;85807.80;;;-4.20
69597;BMP180;70000;51.176;-115.568;2024-03-29T10:48:55;85806.00;;;-4.26
69597;BMP180;70000;51.176;-115.568;2024-03-29T10:51:24;85806.60;;;-4.30
69597;BMP180;70000;51.176;-115.568;2024-03-29T10:53:53;85801.20;;;-4.30
69597;BMP180;70000;51.176;-115.568;2024-03-29T10:56:24;85810.20;;;-4.30
69597;BMP180;70000;51.176;-115.568;2024-03-29T10:59:35;85809.00;;;-4.30
69597;BMP180;70000;51.176;-115.568;2024-03-29T11:02:00;85812.40;;;-4.30
69597;BMP180;70000;51.176;-115.568;2024-03-29T11:04:37;85818.00;;;-4.30
69597;BMP180;70000;51.176;-115.568;2024-03-29T11:07:19;85816.20;;;-4.30
69597;BMP180;70000;51.176;-115.568;2024-03-29T11:09:59;85821.40;;;-4.34
69597;BMP180;70000;51.176;-115.568;2024-03-29T11:12:35;85817.40;;;-4.40
69597;BMP180;70000;51.176;-115.568;2024-03-29T11:15:17;85815.60;;;-4.30
69597;BMP180;70000;51.176;-115.568;2024-03-29T11:17:49;85818.60;;;-4.30
69597;BMP180;70000;51.176;-115.568;2024-03-29T11:20:18;85816.20;;;-4.30
69597;BMP180;70000;51.176;-115.568;2024-03-29T11:22:52;85821.60;;;-4.30
69597;BMP180;70000;51.176;-115.568;2024-03-29T11:25:22;85820.60;;;-4.30
69597;BMP180;70000;51.176;-115.568;2024-03-29T11:27:51;85819.60;;;-4.30
69597;BMP180;70000;51.176;-115.568;2024-03-29T11:30:22;85818.60;;;-4.30
69597;BMP180;70000;51.176;-115.568;2024-03-29T11:32:50;85818.00;;;-4.30
69597;BMP180;70000;51.176;-115.568;2024-03-29T11:35:23;85819.40;;;-4.30
69597;BMP180;70000;51.176;-115.568;2024-03-29T11:38:01;85820.20;;;-4.38
69597;BMP180;70000;51.176;-115.568;2024-03-29T11:40:30;85826.60;;;-4.40
69597;BMP180;70000;51.176;-115.568;2024-03-29T11:42:59;85830.80;;;-4.40
69597;BMP180;70000;51.176;-115.568;2024-03-29T11:45:29;85830.40;;;-4.40
69597;BMP180;70000;51.176;-115.568;2024-03-29T11:48:08;85834.40;;;-4.40
69597;BMP180;70000;51.176;-115.568;2024-03-29T11:50:39;85837.20;;;-4.40
69597;BMP180;70000;51.176;-115.568;2024-03-29T11:53:08;85835.80;;;-4.40
69597;BMP180;70000;51.176;-115.568;2024-03-29T11:55:36;85834.40;;;-4.44
69597;BMP180;70000;51.176;-115.568;2024-03-29T11:58:05;85840.20;;;-4.50
69597;BMP180;70000;51.176;-115.568;2024-03-29T12:00:38;85833.00;;;-4.60
69597;BMP180;70000;51.176;-115.568;2024-03-29T12:03:08;85829.00;;;-4.60
69597;BMP180;70000;51.176;-115.568;2024-03-29T12:05:37;85831.00;;;-4.60
69597;BMP180;70000;51.176;-115.568;2024-03-29T12:08:07;85833.40;;;-4.60
69597;BMP180;70000;51.176;-115.568;2024-03-29T12:10:37;85833.00;;;-4.68
69597;BMP180;70000;51.176;-115.568;2024-03-29T12:13:10;85827.00;;;-4.70
69597;BMP180;70000;51.176;-115.568;2024-03-29T12:15:39;85831.80;;;-4.70
69597;BMP180;70000;51.176;-115.568;2024-03-29T12:18:09;85837.00;;;-4.70
69597;BMP180;70000;51.176;-115.568;2024-03-29T12:20:43;85832.80;;;-4.70
69597;BMP180;70000;51.176;-115.568;2024-03-29T12:23:20;85832.00;;;-4.70
69597;BMP180;70000;51.176;-115.568;2024-03-29T12:25:55;85828.20;;;-4.70
69597;BMP180;70000;51.176;-115.568;2024-03-29T12:28:27;85835.00;;;-4.70
69597;BMP180;70000;51.176;-115.568;2024-03-29T12:30:56;85833.20;;;-4.70
69597;BMP180;70000;51.176;-115.568;2024-03-29T12:33:26;85832.40;;;-4.70
69597;BMP180;70000;51.176;-115.568;2024-03-29T12:35:58;85833.20;;;-4.60
69597;BMP180;70000;51.176;-115.568;2024-03-29T12:38:27;85834.60;;;-4.60
69597;BMP180;70000;51.176;-115.568;2024-03-29T12:40:58;85834.20;;;-4.62
69597;BMP180;70000;51.176;-115.568;2024-03-29T12:43:27;85835.20;;;-4.70
69597;BMP180;70000;51.176;-115.568;2024-03-29T12:45:55;85836.80;;;-4.70
69597;BMP180;70000;51.176;-115.568;2024-03-29T12:48:26;85832.20;;;-4.70
69597;BMP180;70000;51.176;-115.568;2024-03-29T12:50:55;85834.80;;;-4.70
69597;BMP180;70000;51.176;-115.568;2024-03-29T12:53:28;85835.60;;;-4.70
69597;BMP180;70000;51.176;-115.568;2024-03-29T12:55:58;85837.20;;;-4.70
69597;BMP180;70000;51.176;-115.568;2024-03-29T12:58:28;85839.80;;;-4.68
69597;BMP180;70000;51.176;-115.568;2024-03-29T13:00:56;85838.20;;;-4.60
69597;BMP180;70000;51.176;-115.568;2024-03-29T13:03:25;85835.00;;;-4.70
69597;BMP180;70000;51.176;-115.568;2024-03-29T13:05:59;85832.20;;;-4.70
69597;BMP180;70000;51.176;-115.568;2024-03-29T13:08:32;85833.00;;;-4.70
69597;BMP180;70000;51.176;-115.568;2024-03-29T13:11:01;85831.60;;;-4.72
69597;BMP180;70000;51.176;-115.568;2024-03-29T13:13:30;85834.80;;;-4.72
69597;BMP180;70000;51.176;-115.568;2024-03-29T13:15:59;85837.40;;;-4.80
69597;BMP180;70000;51.176;-115.568;2024-03-29T13:18:28;85839.20;;;-4.80
69597;BMP180;70000;51.176;-115.568;2024-03-29T13:20:57;85834.80;;;-4.84
69597;BMP180;70000;51.176;-115.568;2024-03-29T13:23:30;85829.20;;;-4.84
69597;BMP180;70000;51.176;-115.568;2024-03-29T13:26:00;85827.20;;;-4.80
69597;BMP180;70000;51.176;-115.568;2024-03-29T13:28:29;85827.20;;;-4.90
69597;BMP180;70000;51.176;-115.568;2024-03-29T13:30:58;85832.60;;;-4.90
69597;BMP180;70000;51.176;-115.568;2024-03-29T13:33:27;85837.20;;;-4.90
69597;BMP180;70000;51.176;-115.568;2024-03-29T13:35:58;85844.40;;;-4.90
69597;BMP180;70000;51.176;-115.568;2024-03-29T13:38:27;85844.80;;;-4.90
69597;BMP180;70000;51.176;-115.568;2024-03-29T13:41:01;85847.00;;;-4.90
69597;BMP180;70000;51.176;-115.568;2024-03-29T13:43:31;85849.00;;;-4.90
69597;BMP180;70000;51.176;-115.568;2024-03-29T13:46:03;85848.20;;;-4.90
69597;BMP180;70000;51.176;-115.568;2024-03-29T13:48:32;85844.20;;;-4.90
69597;BMP180;70000;51.176;-115.568;2024-03-29T13:51:01;85846.40;;;-4.96
69597;BMP180;70000;51.176;-115.568;2024-03-29T13:53:29;85849.80;;;-5.00
69597;BMP180;70000;51.176;-115.568;2024-03-29T13:56:03;85840.80;;;-5.00
69597;BMP180;70000;51.176;-115.568;2024-03-29T13:58:32;85847.20;;;-5.00
69597;BMP180;70000;51.176;-115.568;2024-03-29T14:01:02;85842.40;;;-5.00
69597;BMP180;70000;51.176;-115.568;2024-03-29T14:03:31;85852.40;;;-5.00
69597;BMP180;70000;51.176;-115.568;2024-03-29T14:06:00;85852.20;;;-5.04
69597;BMP180;70000;51.176;-115.568;2024-03-29T14:08:29;85844.80;;;-5.04